Time;durP1;ratioP1;P1;durP2;ratioP2;P2;SDS_P1;SDS_P2;PMS_P1;PMS_P2;Temp;Humidity;BMP_temperature;BMP_pressure;BME280_temperature;BME280_humidity;BME280_pressure;Samples;Min_cycle;Max_cycle;Signal;HPM_P1;HPM_P2
2021/01/11 09:14:58;;;;;;;66.85;10.70;;;;;;;14.86;34.49;101204.13;5092591;27;20954;-55
2021/01/11 09:19:26;;;;;;;15.13;5.88;;;;;;;15.20;33.65;101227.75;5114272;27;20330;-51
2021/01/11 09:22:18;;;;;;;23.90;5.60;;;;;;;15.32;34.13;101219.59;4929166;28;20048;-61
2021/01/11 09:25:09;;;;;;;12.68;4.80;;;;;;;15.53;32.71;101230.59;4953588;28;62374;-57
2021/01/11 09:27:55;;;;;;;18.40;5.80;;;;;;;15.57;32.22;101226.03;5048225;28;20044;-60
2021/01/11 09:30:40;;;;;;;10.73;5.80;;;;;;;15.62;32.16;101223.09;5046372;28;20040;-59
2021/01/11 09:36:37;;;;;;;20.08;5.43;;;;;;;8.37;35.08;101193.94;5140839;27;20326;-78
2021/01/11 09:39:23;;;;;;;17.42;5.28;;;;;;;6.58;39.40;101186.66;5125077;28;20294;-78
2021/01/11 09:42:08;;;;;;;8.23;4.18;;;;;;;5.55;42.11;101181.72;5120985;28;20050;-78
2021/01/11 09:44:53;;;;;;;24.10;6.25;;;;;;;4.73;44.53;101185.38;5121227;28;20042;-78
2021/01/11 09:47:38;;;;;;;12.35;5.55;;;;;;;4.35;45.31;101182.25;5104951;28;20042;-78
2021/01/11 09:50:23;;;;;;;7.57;4.10;;;;;;;3.88;44.64;101185.75;5104026;28;20047;-78
2021/01/11 09:53:08;;;;;;;15.50;5.00;;;;;;;3.93;46.07;101182.28;5104920;28;20051;-78
2021/01/11 09:55:54;;;;;;;9.00;4.43;;;;;;;3.78;46.53;101180.31;5120497;28;20047;-78
2021/01/11 09:58:38;;;;;;;16.52;3.85;;;;;;;3.80;46.40;101176.31;5119350;28;20045;-79
2021/01/11 10:01:23;;;;;;;9.53;5.07;;;;;;;3.74;45.05;101177.34;5104290;28;20047;-79
2021/01/11 10:04:11;;;;;;;15.27;5.45;;;;;;;3.65;48.69;101176.19;5119713;28;20106;-78
2021/01/11 10:06:57;;;;;;;13.90;6.38;;;;;;;3.55;46.97;101169.94;5115405;28;20039;-79
2021/01/11 10:09:42;;;;;;;;;;;;;;;3.49;48.32;101176.34;5103836;28;20043;-78
2021/01/11 10:12:26;;;;;;;15.30;6.15;;;;;;;3.68;47.39;101172.97;5106293;28;19912;-78
2021/01/11 10:15:12;;;;;;;5.72;3.55;;;;;;;3.73;44.93;101169.50;5104287;28;20047;-78
2021/01/11 10:17:56;;;;;;;8.38;4.15;;;;;;;3.69;43.94;101171.91;5087533;28;20043;-79
2021/01/11 10:20:44;;;;;;;8.50;4.18;;;;;;;3.67;44.38;101170.53;5106288;28;20047;-78
2021/01/11 10:23:29;;;;;;;14.00;5.30;;;;;;;3.67;44.73;101171.34;5108002;28;20058;-79
2021/01/11 10:26:19;;;;;;;8.05;4.57;;;;;;;3.84;45.19;101177.41;5102093;28;20046;-79
2021/01/11 10:29:04;;;;;;;8.43;4.72;;;;;;;3.87;45.27;101176.06;5091481;28;20429;-79
2021/01/11 10:31:51;;;;;;;7.88;3.58;;;;;;;3.76;44.78;101169.78;5118451;28;20050;-77
2021/01/11 10:34:37;;;;;;;14.15;5.10;;;;;;;3.86;45.69;101175.25;5102118;28;20050;-78
2021/01/11 10:37:22;;;;;;;13.43;6.78;;;;;;;4.22;47.96;101178.16;5115761;28;20042;-84
2021/01/11 10:40:10;;;;;;;7.32;3.67;;;;;;;4.28;44.93;101169.84;5086937;28;20047;-82
2021/01/11 10:42:54;;;;;;;8.90;5.07;;;;;;;4.20;44.23;101164.97;5091534;28;20038;-82
2021/01/11 10:45:38;;;;;;;6.03;3.22;;;;;;;4.18;44.86;101164.41;5104490;28;20061;-82
2021/01/11 10:48:23;;;;;;;8.30;4.78;;;;;;;4.26;45.93;101173.88;5075630;28;20043;-81
2021/01/11 10:51:11;;;;;;;14.60;4.75;;;;;;;4.40;45.77;101171.50;5083656;28;20055;-81
2021/01/11 10:53:56;;;;;;;15.32;5.75;;;;;;;4.45;45.95;101172.34;5113037;28;20046;-80
2021/01/11 10:56:41;;;;;;;8.43;4.53;;;;;;;4.48;45.24;101166.41;5071275;28;20509;-80
2021/01/11 10:59:27;;;;;;;;;;;;;;;4.56;46.13;101159.72;5084592;28;20273;-81
2021/01/11 11:02:12;;;;;;;10.00;4.68;;;;;;;4.71;46.14;101157.91;5088884;28;19912;-81
2021/01/11 11:04:57;;;;;;;15.48;6.38;;;;;;;4.73;45.58;101154.91;5070988;28;20043;-82
2021/01/11 11:07:43;;;;;;;5.60;3.90;;;;;;;4.60;43.73;101147.34;5085705;28;20449;-81
2021/01/11 11:10:28;;;;;;;7.88;4.85;;;;;;;4.82;43.84;101145.25;5074863;28;20059;-82
2021/01/11 11:13:14;;;;;;;8.05;4.55;;;;;;;4.98;42.48;101148.78;5085814;28;20043;-81
2021/01/11 11:15:58;;;;;;;5.20;3.38;;;;;;;4.93;42.23;101137.97;5080920;28;20497;-81
2021/01/11 11:18:43;;;;;;;7.32;3.72;;;;;;;4.97;42.48;101141.78;5087824;28;20039;-83
2021/01/11 11:21:28;;;;;;;7.55;4.60;;;;;;;5.06;43.43;101146.38;5084000;28;20420;-81
2021/01/11 11:24:13;;;;;;;7.23;4.10;;;;;;;5.22;42.81;101138.31;5083180;28;20059;-80
2021/01/11 11:27:02;;;;;;;6.32;3.83;;;;;;;5.16;41.59;101124.00;5081085;28;20265;-80
2021/01/11 11:29:48;;;;;;;8.82;4.63;;;;;;;5.26;41.90;101117.81;5080703;28;20039;-80
2021/01/11 11:32:34;;;;;;;9.57;4.25;;;;;;;5.18;41.95;101119.94;5082894;28;20059;-80
2021/01/11 11:35:21;;;;;;;9.90;4.93;;;;;;;5.26;41.98;101115.13;5073074;28;20042;-81
2021/01/11 11:38:06;;;;;;;10.45;5.40;;;;;;;5.24;42.18;101119.97;5086677;28;20047;-81
2021/01/11 11:40:53;;;;;;;15.47;5.57;;;;;;;5.31;42.70;101104.31;5082043;28;20058;-81
2021/01/11 11:43:38;;;;;;;13.18;6.18;;;;;;;5.46;42.78;101097.03;5097197;28;20043;-80
2021/01/11 11:46:23;;;;;;;10.68;5.20;;;;;;;5.54;42.79;101095.66;5083158;28;20043;-81
2021/01/11 11:49:08;;;;;;;13.48;5.55;;;;;;;5.47;41.57;101087.06;5098514;28;20043;-81
2021/01/11 11:51:52;;;;;;;18.80;8.20;;;;;;;5.44;44.11;101087.59;5086451;28;20075;-81
2021/01/11 11:54:37;;;;;;;;;;;;;;;5.40;43.45;101083.81;5096790;28;20043;-80
2021/01/11 11:57:22;;;;;;;13.00;6.00;;;;;;;5.36;42.63;101083.56;5095977;28;19912;-81
2021/01/11 12:00:09;;;;;;;12.45;4.85;;;;;;;5.49;42.82;101074.91;5080906;28;20059;-80
2021/01/11 12:02:54;;;;;;;10.25;5.82;;;;;;;5.59;41.42;101074.06;5082900;28;20042;-81
2021/01/11 12:05:39;;;;;;;14.00;6.22;;;;;;;5.73;42.45;101080.53;5072760;28;20521;-82
2021/01/11 12:08:24;;;;;;;9.32;4.65;;;;;;;5.77;40.70;101068.09;5110376;28;20051;-81
2021/01/11 12:11:09;;;;;;;10.85;5.15;;;;;;;5.86;43.45;101068.34;5083027;28;20058;-81
2021/01/11 12:13:54;;;;;;;12.48;5.03;;;;;;;5.92;43.19;101068.09;5070736;28;20051;-81
2021/01/11 12:16:39;;;;;;;20.90;8.52;;;;;;;5.84;45.42;101065.13;5084679;28;20066;-81
2021/01/11 12:19:25;;;;;;;13.57;5.03;;;;;;;5.94;43.31;101065.91;5085993;28;20055;-81
2021/01/11 12:22:13;;;;;;;9.88;6.05;;;;;;;5.92;43.12;101054.59;5086778;28;20051;-81
2021/01/11 12:24:58;;;;;;;11.15;5.82;;;;;;;6.00;43.60;101059.41;5081037;28;20043;-81
2021/01/11 12:27:43;;;;;;;11.25;6.40;;;;;;;6.05;43.38;101055.88;5084391;28;20051;-81
2021/01/11 12:30:28;;;;;;;20.58;5.90;;;;;;;5.99;42.88;101055.09;5083505;28;20047;-81
2021/01/11 12:33:12;;;;;;;20.10;7.40;;;;;;;5.94;43.51;101052.41;5071089;28;20051;-81
2021/01/11 12:35:57;;;;;;;9.07;5.15;;;;;;;5.98;42.77;101050.81;5069130;28;20047;-81
2021/01/11 12:38:41;;;;;;;13.40;5.88;;;;;;;6.08;42.93;101036.44;5098167;28;20051;-81
2021/01/11 12:41:27;;;;;;;23.38;6.68;;;;;;;6.10;43.06;101034.25;5070918;28;20063;-80
2021/01/11 12:44:11;;;;;;;14.50;6.18;;;;;;;6.14;41.63;101037.25;5072770;28;20038;-80
2021/01/11 12:46:57;;;;;;;7.85;4.28;;;;;;;6.15;42.04;101036.94;5085372;28;20094;-80
2021/01/11 12:49:42;;;;;;;9.15;5.00;;;;;;;6.22;42.63;101033.94;5080743;28;20050;-80
2021/01/11 12:52:27;;;;;;;8.40;5.25;;;;;;;6.35;42.55;101034.13;5072814;28;20043;-80
2021/01/11 12:55:13;;;;;;;9.57;5.53;;;;;;;6.49;41.75;101036.22;5081517;28;20039;-80
2021/01/11 12:57:57;;;;;;;10.95;5.05;;;;;;;6.55;41.13;101032.41;5079438;28;20512;-82
2021/01/11 13:00:42;;;;;;;10.70;5.68;;;;;;;6.59;40.24;101030.75;5065622;22;20056;-80
2021/01/11 13:03:27;;;;;;;12.40;6.30;;;;;;;6.53;40.91;101021.06;5082730;28;20044;-79
2021/01/11 13:06:18;;;;;;;10.77;4.93;;;;;;;6.61;39.62;101033.97;5044829;28;20044;-79
2021/01/11 13:09:05;;;;;;;22.60;8.00;;;;;;;6.62;40.79;101025.59;5028641;28;20064;-80
2021/01/11 13:11:51;;;;;;;16.17;7.63;;;;;;;6.55;40.77;101025.13;5050240;28;20514;-79
2021/01/11 13:14:36;;;;;;;12.70;6.45;;;;;;;6.62;40.09;101022.88;5056721;28;20052;-78
2021/01/11 13:17:20;;;;;;;30.30;8.05;;;;;;;6.67;40.55;101022.03;5057254;28;20058;-78
2021/01/11 13:20:06;;;;;;;10.50;5.93;;;;;;;6.83;40.24;101029.75;5049678;28;20116;-78
2021/01/11 13:22:51;;;;;;;22.95;9.27;;;;;;;6.81;40.35;101021.09;5049152;28;20051;-78
2021/01/11 13:25:36;;;;;;;24.05;8.98;;;;;;;6.72;41.14;101020.09;5062785;28;20044;-78
2021/01/11 13:28:21;;;;;;;17.75;6.50;;;;;;;6.87;40.82;101016.47;5056777;28;20048;-80
2021/01/11 13:31:07;;;;;;;17.80;7.28;;;;;;;7.03;40.36;101019.84;5059737;28;20044;-80
2021/01/11 13:33:53;;;;;;;13.98;6.43;;;;;;;7.17;39.71;101024.31;5060303;28;20071;-80
2021/01/11 13:36:39;;;;;;;26.13;9.52;;;;;;;7.41;38.87;101013.56;5042524;28;20040;-79
2021/01/11 13:39:24;;;;;;;26.15;7.15;;;;;;;7.62;37.06;101020.34;5045229;28;20051;-79
2021/01/11 13:42:12;;;;;;;6.77;3.83;;;;;;;7.64;37.50;101031.69;5066510;28;20044;-80
2021/01/11 13:44:57;;;;;;;9.23;5.55;;;;;;;7.76;37.57;101017.75;5046071;28;20298;-79
2021/01/11 13:47:44;;;;;;;7.45;4.45;;;;;;;7.96;36.27;101024.81;5060659;28;20036;-80
2021/01/11 13:50:29;;;;;;;12.32;5.22;;;;;;;8.07;35.47;101021.72;5049648;28;20055;-80
2021/01/11 13:53:15;;;;;;;6.88;4.93;;;;;;;8.23;35.64;101013.38;5061832;28;20414;-78
2021/01/11 13:56:00;;;;;;;10.95;4.40;;;;;;;8.33;36.07;101013.25;5059773;28;20044;-79
2021/01/11 13:58:45;;;;;;;13.10;4.60;;;;;;;8.39;35.24;101020.19;5061647;28;20044;-78
2021/01/11 14:01:37;;;;;;;12.27;5.90;;;;;;;8.40;35.10;101014.50;5063236;28;20052;-78
2021/01/11 14:04:23;;;;;;;13.15;6.82;;;;;;;8.48;35.90;101013.81;5061821;28;20044;-80
2021/01/11 14:07:08;;;;;;;14.45;6.15;;;;;;;8.58;36.20;101015.59;5061947;28;20044;-80
2021/01/11 14:09:54;;;;;;;20.67;8.02;;;;;;;8.75;35.88;101015.06;5059569;28;20423;-78
2021/01/11 14:12:39;;;;;;;10.80;5.32;;;;;;;8.80;36.41;101012.25;5049333;28;20056;-78
2021/01/11 14:15:25;;;;;;;18.88;7.22;;;;;;;8.83;35.69;101017.91;5061003;28;20051;-80
2021/01/11 14:18:10;;;;;;;19.83;7.38;;;;;;;8.96;35.33;101010.91;5062627;28;20048;-79
2021/01/11 14:20:56;;;;;;;17.95;7.97;;;;;;;9.06;35.55;101008.03;5059201;28;20403;-79
2021/01/11 14:23:45;;;;;;;18.55;7.15;;;;;;;8.98;34.95;101003.28;5044051;28;20514;-78
2021/01/11 14:26:32;;;;;;;37.17;9.77;;;;;;;8.94;35.30;101007.69;5053835;28;20043;-78
2021/01/11 14:29:16;;;;;;;31.42;9.57;;;;;;;8.79;35.43;101002.50;5053711;28;20051;-80
2021/01/11 14:32:02;;;;;;;25.83;8.75;;;;;;;8.95;36.13;101009.28;5059782;28;20552;-78
2021/01/11 14:34:47;;;;;;;38.47;12.20;;;;;;;9.16;35.83;101002.41;5066790;28;20059;-78
2021/01/11 14:37:32;;;;;;;30.13;11.88;;;;;;;9.12;36.46;101001.41;5063758;28;20060;-79
2021/01/11 14:40:17;;;;;;;24.40;9.25;;;;;;;9.01;36.44;100999.97;5063202;28;20051;-78
2021/01/11 14:43:02;;;;;;;13.40;7.63;;;;;;;9.01;35.93;100999.97;5050271;28;20048;-78
2021/01/11 14:45:47;;;;;;;10.32;6.22;;;;;;;8.84;36.23;100997.81;5058390;28;20044;-78
2021/01/11 14:48:38;;;;;;;13.00;5.15;;;;;;;8.70;36.87;101001.56;5064464;28;20043;-77
2021/01/11 14:51:23;;;;;;;13.27;6.68;;;;;;;8.91;37.09;101002.84;5063135;28;20051;-78
2021/01/11 14:54:08;;;;;;;10.73;5.80;;;;;;;8.79;38.48;101000.59;5054782;28;20040;-79
2021/01/11 14:56:54;;;;;;;18.17;6.15;;;;;;;8.91;38.65;101002.84;5061427;28;20514;-79
2021/01/11 14:59:39;;;;;;;15.50;7.38;;;;;;;8.84;38.94;100994.28;5063048;28;20518;-79
2021/01/11 15:02:24;;;;;;;12.43;7.17;;;;;;;8.75;38.89;100990.66;5053094;28;20044;-79
2021/01/11 15:05:09;;;;;;;57.97;14.10;;;;;;;9.00;41.40;101001.06;5062246;28;20064;-80
2021/01/11 15:07:53;;;;;;;15.23;7.15;;;;;;;8.99;38.79;100986.69;5056497;28;20044;-78
2021/01/11 15:10:38;;;;;;;12.73;6.90;;;;;;;8.91;39.07;101000.97;5065368;28;20048;-78
2021/01/11 15:13:22;;;;;;;12.43;6.60;;;;;;;8.85;39.63;101004.03;5063118;28;20048;-77
2021/01/11 15:16:08;;;;;;;11.50;6.53;;;;;;;8.75;39.88;100996.06;5061652;28;20052;-79
2021/01/11 15:18:53;;;;;;;20.05;7.00;;;;;;;8.71;40.17;101001.28;5056747;28;20270;-78
2021/01/11 15:21:39;;;;;;;17.23;7.60;;;;;;;8.72;40.57;100996.69;5061837;28;20063;-79
2021/01/11 15:24:24;;;;;;;17.52;7.82;;;;;;;8.61;40.81;100992.50;5066511;28;20051;-77
2021/01/11 15:27:09;;;;;;;39.50;12.60;;;;;;;8.28;43.54;101002.47;5066540;28;20051;-77
2021/01/11 15:29:55;;;;;;;16.20;7.43;;;;;;;8.12;41.90;101008.09;5065063;28;20039;-77
2021/01/11 15:32:39;;;;;;;22.17;8.07;;;;;;;8.14;42.17;101000.47;5047457;28;20048;-76
2021/01/11 15:35:26;;;;;;;14.38;8.27;;;;;;;8.23;42.37;101002.53;5060510;28;20044;-77
2021/01/11 15:38:11;;;;;;;19.02;8.07;;;;;;;7.97;43.40;100994.75;5059471;28;20044;-77
2021/01/11 15:40:56;;;;;;;20.50;7.47;;;;;;;7.98;43.45;101004.47;5060309;28;20044;-77
2021/01/11 15:43:41;;;;;;;14.43;7.20;;;;;;;7.90;43.63;100998.91;5056952;28;20051;-76
2021/01/11 15:46:28;;;;;;;15.15;9.00;;;;;;;8.01;43.44;101003.09;5061937;28;20052;-78
2021/01/11 15:49:13;;;;;;;19.60;9.27;;;;;;;7.82;43.93;100996.84;5058473;28;20051;-77
2021/01/11 15:51:58;;;;;;;;;;;;;;;7.60;44.33;101003.59;5054551;28;20052;-77
2021/01/11 15:54:43;;;;;;;14.82;8.52;;;;;;;7.60;44.56;101009.00;5063818;28;19916;-77
2021/01/11 15:57:27;;;;;;;22.98;8.85;;;;;;;7.67;44.59;101009.44;5067701;28;20067;-77
2021/01/11 16:00:15;;;;;;;12.00;6.70;;;;;;;7.58;44.58;101003.06;5049702;28;20043;-77
2021/01/11 16:02:59;;;;;;;21.85;11.18;;;;;;;7.55;44.52;101008.25;5064034;28;20281;-77
2021/01/11 16:05:46;;;;;;;21.35;10.77;;;;;;;7.33;45.21;101000.63;5050617;28;20060;-77
2021/01/11 16:08:31;;;;;;;29.92;13.10;;;;;;;7.31;46.87;100998.22;5038583;28;20416;-77
2021/01/11 16:11:17;;;;;;;20.63;11.03;;;;;;;7.26;46.26;101006.38;5049957;28;20044;-78
2021/01/11 16:14:02;;;;;;;37.05;16.25;;;;;;;7.16;46.18;101001.06;5046993;28;20040;-77
2021/01/11 16:16:46;;;;;;;30.83;14.10;;;;;;;7.06;46.50;100998.47;5061436;28;20117;-78
2021/01/11 16:19:31;;;;;;;36.80;14.50;;;;;;;7.17;46.08;101004.56;5053311;28;20274;-78
2021/01/11 16:22:15;;;;;;;28.27;11.10;;;;;;;6.97;45.46;100996.66;5063983;28;20051;-77
2021/01/11 16:25:00;;;;;;;21.50;10.52;;;;;;;6.54;46.95;101012.69;5043009;28;20040;-77
2021/01/11 16:27:45;;;;;;;27.58;11.48;;;;;;;6.48;47.49;101010.28;5067037;28;20044;-78
2021/01/11 16:30:29;;;;;;;27.50;13.33;;;;;;;6.45;47.48;101011.66;5063758;28;20052;-78
2021/01/11 16:33:14;;;;;;;21.67;8.32;;;;;;;6.44;47.15;101012.75;5050176;28;20269;-78
2021/01/11 16:35:59;;;;;;;19.30;10.40;;;;;;;6.23;47.69;101019.38;5059710;28;20040;-77
2021/01/11 16:38:44;;;;;;;18.60;8.55;;;;;;;6.31;46.82;101016.88;5050434;28;20043;-77
2021/01/11 16:41:31;;;;;;;19.40;7.05;;;;;;;6.33;45.69;101022.00;5064818;28;20415;-78
2021/01/11 16:44:16;;;;;;;24.08;8.25;;;;;;;6.15;45.27;101019.94;5063329;28;20048;-80
2021/01/11 16:47:02;;;;;;;44.40;9.13;;;;;;;6.11;44.92;101022.38;5061352;28;20048;-80
2021/01/11 16:49:48;;;;;;;22.83;8.82;;;;;;;5.98;44.38;101029.22;5066014;28;20040;-80
2021/01/11 16:52:40;;;;;;;23.80;8.27;;;;;;;5.93;43.22;101023.03;5064592;28;20419;-79
2021/01/11 16:55:24;;;;;;;31.85;9.43;;;;;;;5.81;42.74;101020.59;5063452;28;20048;-80
2021/01/11 16:58:09;;;;;;;20.13;7.53;;;;;;;5.86;43.64;101030.56;5062369;28;20044;-81
2021/01/11 17:00:54;;;;;;;31.52;8.95;;;;;;;6.10;43.81;101030.75;5047536;28;20043;-80
2021/01/11 17:03:39;;;;;;;16.08;7.72;;;;;;;5.85;43.62;101035.16;5064449;28;20056;-81
2021/01/11 17:06:24;;;;;;;20.42;6.50;;;;;;;5.78;42.93;101031.16;5064473;28;20411;-80
2021/01/11 17:09:09;;;;;;;15.27;6.63;;;;;;;5.70;43.83;101047.88;5057161;28;20048;-81
2021/01/11 17:12:00;;;;;;;20.70;7.30;;;;;;;5.63;43.83;101039.28;5047214;28;20047;-80
2021/01/11 17:14:46;;;;;;;29.40;10.20;;;;;;;5.68;44.31;101039.28;5072951;28;20051;-80
2021/01/11 17:17:41;;;;;;;25.42;8.35;;;;;;;5.48;44.18;101043.66;5067117;28;20064;-80
2021/01/11 17:20:26;;;;;;;27.98;11.25;;;;;;;5.28;44.13;101048.25;5059598;28;20246;-79
2021/01/11 17:23:11;;;;;;;43.10;13.70;;;;;;;5.42;46.32;101052.00;5054966;28;20052;-79
2021/01/11 17:25:56;;;;;;;45.55;13.75;;;;;;;5.53;45.67;101049.03;5058310;28;20043;-80
2021/01/11 17:28:41;;;;;;;16.88;9.52;;;;;;;5.37;44.07;101055.53;5061477;28;20035;-80
2021/01/11 17:31:26;;;;;;;20.73;8.90;;;;;;;5.21;43.00;101053.13;5066435;28;20048;-80
2021/01/11 17:34:11;;;;;;;19.52;8.02;;;;;;;5.15;43.32;101046.91;5056686;28;20056;-79
2021/01/11 17:36:56;;;;;;;27.48;8.65;;;;;;;5.18;43.20;101051.78;5048960;28;20048;-80
2021/01/11 17:39:41;;;;;;;52.42;12.65;;;;;;;5.35;43.95;101068.47;5068740;28;20044;-81
2021/01/11 17:42:26;;;;;;;37.37;13.73;;;;;;;5.10;44.88;101055.00;5057101;28;20052;-80
2021/01/11 17:45:12;;;;;;;52.20;14.73;;;;;;;5.24;45.26;101063.34;5059647;28;20051;-79
2021/01/11 17:47:57;;;;;;;;;;;;;;;5.51;45.74;101077.34;5072805;28;20044;-82
2021/01/11 17:50:42;;;;;;;21.55;8.52;;;;;;;5.21;44.18;101072.78;5060398;28;19916;-80
2021/01/11 17:53:28;;;;;;;60.37;17.57;;;;;;;5.26;45.00;101080.06;5067994;28;20048;-80
2021/01/11 17:56:14;;;;;;;32.47;11.48;;;;;;;5.08;44.17;101082.22;5045489;28;20052;-78
2021/01/11 17:58:59;;;;;;;43.72;14.40;;;;;;;5.15;45.17;101090.03;5048629;28;20044;-81
2021/01/11 18:01:44;;;;;;;33.43;9.93;;;;;;;5.21;43.92;101088.16;5050656;28;20043;-79
2021/01/11 18:04:28;;;;;;;48.60;15.13;;;;;;;5.03;45.70;101082.22;5060275;28;20040;-79
2021/01/11 18:07:13;;;;;;;65.83;16.47;;;;;;;5.13;45.37;101093.00;5059942;28;20060;-79
2021/01/11 18:09:58;;;;;;;25.25;9.63;;;;;;;4.74;45.40;101097.28;5067598;28;20091;-80
2021/01/11 18:12:42;;;;;;;33.33;10.88;;;;;;;4.78;45.51;101100.25;5068130;28;20047;-79
2021/01/11 18:15:27;;;;;;;28.00;10.13;;;;;;;4.77;45.83;101088.69;5061207;28;20534;-79
2021/01/11 18:18:12;;;;;;;25.53;11.30;;;;;;;4.69;45.35;101102.66;5060149;28;20400;-80
2021/01/11 18:20:57;;;;;;;;;;;;;;;4.56;46.02;101105.88;5049518;28;20261;-79
2021/01/11 18:23:42;;;;;;;38.65;12.77;;;;;;;4.84;45.36;101100.00;5060894;28;19913;-78
2021/01/11 18:26:28;;;;;;;;;;;;;;;4.46;43.68;101113.94;5065801;28;20059;-80
2021/01/11 18:29:13;;;;;;;21.50;7.82;;;;;;;4.23;45.63;101110.59;5064917;28;19916;-79
2021/01/11 18:32:01;;;;;;;31.92;10.18;;;;;;;4.30;45.53;101104.97;5064155;28;20040;-79
2021/01/11 18:34:46;;;;;;;28.95;9.93;;;;;;;4.59;45.30;101108.03;5053275;28;20056;-80
2021/01/11 18:37:31;;;;;;;20.08;8.75;;;;;;;4.68;44.39;101114.50;5068989;28;20048;-80
2021/01/11 18:40:17;;;;;;;;;;;;;;;4.78;43.87;101109.13;5046191;28;20071;-82
2021/01/11 18:43:04;;;;;;;32.78;11.30;;;;;;;4.75;43.58;101112.38;5054620;28;20298;-79
2021/01/11 18:45:48;;;;;;;24.60;8.57;;;;;;;4.82;43.84;101107.56;5061709;28;20067;-78
2021/01/11 18:48:33;;;;;;;20.30;7.70;;;;;;;4.81;43.88;101115.88;5050604;28;20040;-79
2021/01/11 18:51:21;;;;;;;32.88;10.95;;;;;;;4.58;44.82;101114.47;5047111;28;20051;-78
2021/01/11 18:54:06;;;;;;;43.83;13.10;;;;;;;4.67;45.08;101121.00;5052495;28;20063;-78
2021/01/11 18:56:52;;;;;;;52.75;13.88;;;;;;;4.46;44.73;101116.63;5061011;28;20040;-78
2021/01/11 18:59:37;;;;;;;30.00;10.73;;;;;;;4.54;44.97;101116.91;5062554;28;20714;-77
2021/01/11 19:02:22;;;;;;;26.83;8.85;;;;;;;4.57;44.59;101118.28;5088243;22;20726;-82
2021/01/11 19:05:08;;;;;;;40.10;10.75;;;;;;;4.63;45.00;101122.56;5072882;28;20052;-81
2021/01/11 19:07:54;;;;;;;27.98;10.43;;;;;;;4.88;46.12;101116.41;5074223;28;20047;-81
2021/01/11 19:10:40;;;;;;;40.10;12.60;;;;;;;4.86;45.39;101123.97;5092818;28;20036;-81
2021/01/11 19:13:25;;;;;;;25.17;8.52;;;;;;;4.55;43.02;101120.41;5074628;28;20056;-81
2021/01/11 19:16:17;;;;;;;34.03;13.67;;;;;;;4.76;44.91;101123.97;5077763;28;20043;-80
2021/01/11 19:19:02;;;;;;;19.90;8.50;;;;;;;4.79;42.46;101124.22;5063817;28;20283;-80
2021/01/11 19:21:51;;;;;;;11.32;5.63;;;;;;;4.68;42.26;101120.69;5069393;28;20442;-81
2021/01/11 19:24:35;;;;;;;40.15;12.35;;;;;;;4.74;43.72;101126.91;5069352;28;20051;-82
2021/01/11 19:27:21;;;;;;;26.10;7.30;;;;;;;4.83;44.23;101132.56;5067109;28;20039;-80
2021/01/11 19:30:07;;;;;;;18.03;7.33;;;;;;;4.61;42.43;101140.91;5068965;28;20059;-81
2021/01/11 19:32:52;;;;;;;23.98;9.95;;;;;;;4.34;42.27;101132.19;5069826;28;20302;-81
2021/01/11 19:35:37;;;;;;;25.60;8.82;;;;;;;4.35;42.63;101139.19;5078570;28;20047;-80
2021/01/11 19:38:22;;;;;;;19.23;7.37;;;;;;;4.53;42.67;101138.69;5077377;28;20519;-80
2021/01/11 19:41:07;;;;;;;36.35;12.50;;;;;;;4.53;42.84;101141.38;5071264;28;20289;-80
2021/01/11 19:43:53;;;;;;;44.70;11.55;;;;;;;4.53;44.87;101142.22;5059904;28;20414;-81
2021/01/11 19:46:46;;;;;;;11.05;6.25;;;;;;;4.64;42.40;101143.03;5068512;28;20054;-81
2021/01/11 19:49:31;;;;;;;24.25;9.85;;;;;;;4.63;42.85;101142.22;5068170;28;20040;-81
2021/01/11 19:52:16;;;;;;;19.85;7.07;;;;;;;4.31;42.81;101152.38;5054295;28;20068;-80
2021/01/11 19:55:01;;;;;;;20.60;7.38;;;;;;;3.87;43.95;101141.09;5076891;28;20039;-81
2021/01/11 19:57:46;;;;;;;33.33;11.27;;;;;;;4.21;45.15;101153.13;5065527;28;20119;-81
2021/01/11 20:00:31;;;;;;;24.58;8.02;;;;;;;4.47;44.00;101153.25;5066647;28;20054;-81
2021/01/11 20:03:16;;;;;;;10.45;5.45;;;;;;;4.05;42.43;101146.06;5059136;28;20522;-80
2021/01/11 20:06:01;;;;;;;26.73;8.15;;;;;;;3.95;43.56;101154.06;5070756;28;20072;-81
2021/01/11 20:08:46;;;;;;;28.10;10.90;;;;;;;3.85;44.84;101156.69;5072932;28;20509;-81
2021/01/11 20:11:30;;;;;;;25.35;7.50;;;;;;;3.79;43.54;101157.72;5066545;28;20051;-81
2021/01/11 20:14:16;;;;;;;15.75;5.97;;;;;;;4.16;44.05;101161.19;5068683;28;20051;-80
2021/01/11 20:17:01;;;;;;;18.67;8.77;;;;;;;4.35;41.47;101160.72;5075331;28;20035;-81
2021/01/11 20:19:46;;;;;;;16.73;7.40;;;;;;;4.10;41.90;101164.91;5068372;28;20048;-80
2021/01/11 20:22:39;;;;;;;22.33;7.80;;;;;;;4.40;42.25;101168.81;5056868;28;20056;-80
2021/01/11 20:25:23;;;;;;;22.75;9.63;;;;;;;4.21;44.25;101171.97;5071562;28;20044;-80
2021/01/11 20:28:09;;;;;;;30.88;9.93;;;;;;;4.18;44.86;101177.88;5063054;28;20043;-81
2021/01/11 20:30:57;;;;;;;21.60;7.82;;;;;;;4.26;42.99;101173.88;5073541;28;20047;-81
2021/01/11 20:33:45;;;;;;;13.30;6.60;;;;;;;4.04;42.65;101170.53;5068408;28;20419;-81
2021/01/11 20:36:30;;;;;;;11.07;5.53;;;;;;;4.07;42.26;101181.56;5072936;28;20055;-80
2021/01/11 20:39:15;;;;;;;15.18;5.65;;;;;;;3.75;42.78;101178.16;5071854;28;20060;-80
2021/01/11 20:42:00;;;;;;;28.63;12.02;;;;;;;3.97;42.58;101183.38;5057296;28;20044;-81
2021/01/11 20:44:45;;;;;;;26.55;11.93;;;;;;;4.05;42.46;101177.53;5069203;28;20044;-81
2021/01/11 20:47:30;;;;;;;28.38;9.20;;;;;;;4.06;43.60;101184.53;5068871;28;20044;-81
2021/01/11 20:50:16;;;;;;;20.70;6.22;;;;;;;3.92;43.71;101184.16;5063849;28;20048;-81
2021/01/11 20:53:02;;;;;;;16.02;5.68;;;;;;;3.95;43.27;101186.34;5078972;28;20055;-81
2021/01/11 20:55:46;;;;;;;21.38;8.63;;;;;;;3.68;43.36;101183.75;5054541;28;20048;-80
2021/01/11 20:58:31;;;;;;;17.52;7.00;;;;;;;3.70;43.27;101175.41;5061333;28;20529;-81
2021/01/11 21:01:16;;;;;;;12.95;6.63;;;;;;;3.80;42.27;101162.03;5066153;28;20513;-81
2021/01/11 21:04:01;;;;;;;11.85;6.28;;;;;;;3.49;43.42;101163.69;5081329;28;20110;-81
2021/01/11 21:06:46;;;;;;;18.45;7.57;;;;;;;3.79;43.00;101161.22;5073850;28;20048;-81
2021/01/11 21:09:31;;;;;;;14.60;8.15;;;;;;;3.75;42.41;101159.31;5058851;28;20056;-81
2021/01/11 21:12:16;;;;;;;32.83;7.95;;;;;;;3.81;42.20;101166.34;5057752;28;20517;-81
2021/01/11 21:15:02;;;;;;;19.10;5.40;;;;;;;3.67;42.39;101159.78;5071318;28;20051;-81
2021/01/11 21:17:46;;;;;;;15.75;6.43;;;;;;;3.86;42.09;101164.50;5072845;28;20388;-81
2021/01/11 21:20:31;;;;;;;10.50;4.80;;;;;;;3.77;42.21;101159.84;5075579;28;20052;-81
2021/01/11 21:23:16;;;;;;;19.70;6.60;;;;;;;3.75;42.22;101157.44;5068041;28;20513;-81
2021/01/11 21:26:02;;;;;;;10.80;5.35;;;;;;;3.72;42.25;101163.31;5078038;28;20055;-81
2021/01/11 21:28:47;;;;;;;17.17;7.05;;;;;;;3.80;42.29;101159.34;5065491;28;20055;-81
2021/01/11 21:31:32;;;;;;;19.23;8.05;;;;;;;3.87;43.02;101168.00;5072242;28;20047;-81
2021/01/11 21:34:17;;;;;;;12.45;6.20;;;;;;;3.60;42.45;101154.66;5067873;28;20518;-81
2021/01/11 21:37:04;;;;;;;16.23;6.97;;;;;;;3.61;43.35;101155.44;5075255;28;20060;-81
2021/01/11 21:39:50;;;;;;;29.75;9.15;;;;;;;3.65;43.29;101151.19;5063266;28;20060;-81
2021/01/11 21:42:34;;;;;;;32.42;9.07;;;;;;;3.43;45.24;101152.09;5055664;28;20055;-81
2021/01/11 21:45:20;;;;;;;16.23;6.15;;;;;;;3.60;42.66;101151.16;5061198;28;20044;-81
2021/01/11 21:48:04;;;;;;;;;;;;;;;3.36;42.41;101159.56;5062395;28;20048;-81
2021/01/11 21:50:51;;;;;;;21.60;8.73;;;;;;;3.73;43.00;101164.13;5070251;28;19913;-81
2021/01/11 21:53:37;;;;;;;38.17;9.80;;;;;;;3.56;44.67;101164.28;5065302;28;20039;-81
2021/01/11 21:56:21;;;;;;;35.95;11.30;;;;;;;3.29;46.20;101160.84;5066120;28;20052;-79
2021/01/11 21:59:07;;;;;;;12.68;6.40;;;;;;;3.64;43.34;101150.38;5082363;28;20036;-80
2021/01/11 22:01:51;;;;;;;15.48;6.30;;;;;;;3.42;43.55;101155.84;5079994;28;20054;-80
2021/01/11 22:04:36;;;;;;;15.45;6.15;;;;;;;3.39;43.97;101155.56;5085146;28;20047;-79
2021/01/11 22:07:21;;;;;;;15.33;7.77;;;;;;;3.48;44.99;101158.56;5086389;28;20422;-78
2021/01/11 22:10:07;;;;;;;37.00;12.85;;;;;;;3.23;45.40;101154.63;5077690;28;20695;-80